Terminal Aerodrome Forecast
Issued by NWS

Home | Current Version | Previous Version | Graphics & Text | Print | Product List | Glossary On
Versions: 1 2 3 4 5 6 7 8 9 10 11 12 13 14 15 16 17 18 19 20 21 22 23 24 25 26
000
FTUS43 KLOT 270525
TAFDPA
TAF
KDPA 270525Z 2706/2806 VRB03KT 5SM -SHRA BR SCT015 OVC050
     FM270700 VRB02KT 4SM BR VCSH SCT020 BKN040
     FM271100 02004KT 5SM BR SCT010 BKN020
     FM271400 03008KT P6SM SCT020 BKN040
     FM272000 03012G18KT P6SM SCT025 BKN040
     FM280100 03007KT P6SM SCT250=

USA.gov is the U.S. government's official web portal to all federal, state and local government web resources and services.